Airport View

Enter AWOS ICAO identifier for current METAR.

ex. KFNL

CYPQ 280329Z AUTO 00000KT 8SM SCT050 14/14 A2979 RMK SLP090 DENSITY ALT 800FT

28 Sep 2020 03:35

Other Area AWOS: CWNC - CYTR - CWGL - CYKZ

TAF CYPQ 271941Z 2720/2802 20012G22KT P6SM SKC RMK FCST BASED ON AUTO OBS. NXT FCST WILL BE ISSUED AT 280945Z